sensor_id;sensor_type;location;lat;lon;timestamp;P1;durP1;ratioP1;P2;durP2;ratioP2
4933;SDS011;2482;49.154;8.254;2023-07-13T00:02:00;2.67;;;1.40;;
4933;SDS011;2482;49.154;8.254;2023-07-13T00:04:27;3.23;;;1.30;;
4933;SDS011;2482;49.154;8.254;2023-07-13T00:06:57;2.90;;;1.40;;
4933;SDS011;2482;49.154;8.254;2023-07-13T00:09:24;4.30;;;1.53;;
4933;SDS011;2482;49.154;8.254;2023-07-13T00:11:52;3.00;;;1.27;;
4933;SDS011;2482;49.154;8.254;2023-07-13T00:14:22;2.37;;;1.90;;
4933;SDS011;2482;49.154;8.254;2023-07-13T00:16:52;2.87;;;1.80;;
4933;SDS011;2482;49.154;8.254;2023-07-13T00:19:19;2.83;;;1.60;;
4933;SDS011;2482;49.154;8.254;2023-07-13T00:21:47;3.27;;;1.70;;
4933;SDS011;2482;49.154;8.254;2023-07-13T00:24:15;3.40;;;1.60;;
4933;SDS011;2482;49.154;8.254;2023-07-13T00:26:50;5.27;;;1.50;;
4933;SDS011;2482;49.154;8.254;2023-07-13T00:29:17;2.40;;;1.43;;
4933;SDS011;2482;49.154;8.254;2023-07-13T00:31:44;2.80;;;1.73;;
4933;SDS011;2482;49.154;8.254;2023-07-13T00:34:12;7.33;;;1.53;;
4933;SDS011;2482;49.154;8.254;2023-07-13T00:36:39;4.57;;;1.67;;
4933;SDS011;2482;49.154;8.254;2023-07-13T00:39:06;1.60;;;1.30;;
4933;SDS011;2482;49.154;8.254;2023-07-13T00:41:33;3.13;;;1.53;;
4933;SDS011;2482;49.154;8.254;2023-07-13T00:44:02;3.00;;;1.60;;
4933;SDS011;2482;49.154;8.254;2023-07-13T00:46:30;3.80;;;1.60;;
4933;SDS011;2482;49.154;8.254;2023-07-13T00:49:01;3.97;;;1.50;;
4933;SDS011;2482;49.154;8.254;2023-07-13T00:51:36;1.80;;;1.63;;
4933;SDS011;2482;49.154;8.254;2023-07-13T00:54:16;3.50;;;1.57;;
4933;SDS011;2482;49.154;8.254;2023-07-13T00:56:48;2.30;;;1.23;;
4933;SDS011;2482;49.154;8.254;2023-07-13T00:59:19;3.80;;;1.80;;
4933;SDS011;2482;49.154;8.254;2023-07-13T01:01:48;6.23;;;1.60;;
4933;SDS011;2482;49.154;8.254;2023-07-13T01:04:16;4.60;;;1.50;;
4933;SDS011;2482;49.154;8.254;2023-07-13T01:06:44;4.60;;;1.97;;
4933;SDS011;2482;49.154;8.254;2023-07-13T01:09:13;3.67;;;1.60;;
4933;SDS011;2482;49.154;8.254;2023-07-13T01:11:42;3.40;;;1.90;;
4933;SDS011;2482;49.154;8.254;2023-07-13T01:14:11;4.90;;;1.57;;
4933;SDS011;2482;49.154;8.254;2023-07-13T01:16:38;1.83;;;1.67;;
4933;SDS011;2482;49.154;8.254;2023-07-13T01:19:16;4.70;;;1.70;;
4933;SDS011;2482;49.154;8.254;2023-07-13T01:22:09;1.70;;;1.43;;
4933;SDS011;2482;49.154;8.254;2023-07-13T01:24:41;1.70;;;1.40;;
4933;SDS011;2482;49.154;8.254;2023-07-13T01:27:13;4.93;;;1.77;;
4933;SDS011;2482;49.154;8.254;2023-07-13T01:29:43;3.00;;;1.53;;
4933;SDS011;2482;49.154;8.254;2023-07-13T01:32:15;2.80;;;1.50;;
4933;SDS011;2482;49.154;8.254;2023-07-13T01:34:52;2.23;;;1.70;;
4933;SDS011;2482;49.154;8.254;2023-07-13T01:37:21;3.30;;;1.83;;
4933;SDS011;2482;49.154;8.254;2023-07-13T01:39:51;6.23;;;1.97;;
4933;SDS011;2482;49.154;8.254;2023-07-13T01:42:18;11.53;;;2.33;;
4933;SDS011;2482;49.154;8.254;2023-07-13T01:44:45;3.90;;;1.87;;
4933;SDS011;2482;49.154;8.254;2023-07-13T01:47:12;3.10;;;1.60;;
4933;SDS011;2482;49.154;8.254;2023-07-13T01:49:39;2.40;;;1.70;;
4933;SDS011;2482;49.154;8.254;2023-07-13T01:52:07;3.33;;;1.67;;
4933;SDS011;2482;49.154;8.254;2023-07-13T01:54:34;1.53;;;1.43;;
4933;SDS011;2482;49.154;8.254;2023-07-13T01:57:01;2.50;;;1.67;;
4933;SDS011;2482;49.154;8.254;2023-07-13T01:59:29;4.47;;;1.73;;
4933;SDS011;2482;49.154;8.254;2023-07-13T02:01:56;3.73;;;1.83;;
4933;SDS011;2482;49.154;8.254;2023-07-13T02:04:23;3.77;;;2.10;;
4933;SDS011;2482;49.154;8.254;2023-07-13T02:06:50;4.00;;;1.60;;
4933;SDS011;2482;49.154;8.254;2023-07-13T02:09:17;2.17;;;1.67;;
4933;SDS011;2482;49.154;8.254;2023-07-13T02:11:44;6.77;;;1.67;;
4933;SDS011;2482;49.154;8.254;2023-07-13T02:14:11;3.30;;;2.10;;
4933;SDS011;2482;49.154;8.254;2023-07-13T02:16:39;4.43;;;1.70;;
4933;SDS011;2482;49.154;8.254;2023-07-13T02:19:06;1.63;;;1.27;;
4933;SDS011;2482;49.154;8.254;2023-07-13T02:21:33;3.17;;;1.70;;
4933;SDS011;2482;49.154;8.254;2023-07-13T02:24:00;2.53;;;1.60;;
4933;SDS011;2482;49.154;8.254;2023-07-13T02:26:27;4.37;;;2.00;;
4933;SDS011;2482;49.154;8.254;2023-07-13T02:28:54;2.33;;;1.53;;
4933;SDS011;2482;49.154;8.254;2023-07-13T02:31:22;2.67;;;1.63;;
4933;SDS011;2482;49.154;8.254;2023-07-13T02:33:49;3.17;;;1.70;;
4933;SDS011;2482;49.154;8.254;2023-07-13T02:36:16;5.27;;;2.00;;
4933;SDS011;2482;49.154;8.254;2023-07-13T02:38:44;4.47;;;1.57;;
4933;SDS011;2482;49.154;8.254;2023-07-13T02:41:11;3.23;;;1.67;;
4933;SDS011;2482;49.154;8.254;2023-07-13T02:43:39;3.60;;;1.63;;
4933;SDS011;2482;49.154;8.254;2023-07-13T02:46:06;1.73;;;1.50;;
4933;SDS011;2482;49.154;8.254;2023-07-13T02:48:34;2.40;;;1.73;;
4933;SDS011;2482;49.154;8.254;2023-07-13T02:51:03;1.97;;;1.57;;
4933;SDS011;2482;49.154;8.254;2023-07-13T02:53:31;3.80;;;2.00;;
4933;SDS011;2482;49.154;8.254;2023-07-13T02:55:58;2.93;;;1.57;;
4933;SDS011;2482;49.154;8.254;2023-07-13T02:58:26;7.10;;;2.00;;
4933;SDS011;2482;49.154;8.254;2023-07-13T03:00:53;4.80;;;1.70;;
4933;SDS011;2482;49.154;8.254;2023-07-13T03:03:21;3.83;;;2.20;;
4933;SDS011;2482;49.154;8.254;2023-07-13T03:05:57;4.87;;;2.03;;
4933;SDS011;2482;49.154;8.254;2023-07-13T03:08:26;2.07;;;1.90;;
4933;SDS011;2482;49.154;8.254;2023-07-13T03:11:03;5.40;;;2.73;;
4933;SDS011;2482;49.154;8.254;2023-07-13T03:13:34;2.57;;;1.73;;
4933;SDS011;2482;49.154;8.254;2023-07-13T03:16:01;2.40;;;1.70;;
4933;SDS011;2482;49.154;8.254;2023-07-13T03:18:29;3.57;;;1.70;;
4933;SDS011;2482;49.154;8.254;2023-07-13T03:20:56;3.83;;;1.90;;
4933;SDS011;2482;49.154;8.254;2023-07-13T03:23:23;2.73;;;1.90;;
4933;SDS011;2482;49.154;8.254;2023-07-13T03:26:00;3.40;;;1.70;;
4933;SDS011;2482;49.154;8.254;2023-07-13T03:28:32;1.50;;;1.40;;
4933;SDS011;2482;49.154;8.254;2023-07-13T03:31:00;5.40;;;2.57;;
4933;SDS011;2482;49.154;8.254;2023-07-13T03:33:32;3.23;;;1.80;;
4933;SDS011;2482;49.154;8.254;2023-07-13T03:36:00;3.37;;;1.90;;
4933;SDS011;2482;49.154;8.254;2023-07-13T03:38:29;6.50;;;2.20;;
4933;SDS011;2482;49.154;8.254;2023-07-13T03:40:56;2.37;;;1.60;;
4933;SDS011;2482;49.154;8.254;2023-07-13T03:43:23;2.50;;;2.00;;
4933;SDS011;2482;49.154;8.254;2023-07-13T03:45:50;3.13;;;1.80;;
4933;SDS011;2482;49.154;8.254;2023-07-13T03:48:17;2.90;;;2.03;;
4933;SDS011;2482;49.154;8.254;2023-07-13T03:50:44;1.77;;;1.67;;
4933;SDS011;2482;49.154;8.254;2023-07-13T03:53:13;4.63;;;2.60;;
4933;SDS011;2482;49.154;8.254;2023-07-13T03:55:40;2.43;;;1.80;;
4933;SDS011;2482;49.154;8.254;2023-07-13T03:58:29;2.37;;;1.90;;
4933;SDS011;2482;49.154;8.254;2023-07-13T04:01:03;1.77;;;1.67;;
4933;SDS011;2482;49.154;8.254;2023-07-13T04:03:32;3.80;;;2.20;;
4933;SDS011;2482;49.154;8.254;2023-07-13T04:06:00;3.10;;;2.07;;
4933;SDS011;2482;49.154;8.254;2023-07-13T04:08:29;3.73;;;1.83;;
4933;SDS011;2482;49.154;8.254;2023-07-13T04:11:02;2.83;;;1.60;;
4933;SDS011;2482;49.154;8.254;2023-07-13T04:13:30;3.87;;;1.90;;
4933;SDS011;2482;49.154;8.254;2023-07-13T04:15:58;4.43;;;1.63;;
4933;SDS011;2482;49.154;8.254;2023-07-13T04:18:25;2.83;;;1.70;;
4933;SDS011;2482;49.154;8.254;2023-07-13T04:20:52;2.20;;;2.00;;
4933;SDS011;2482;49.154;8.254;2023-07-13T04:23:19;1.83;;;1.57;;
4933;SDS011;2482;49.154;8.254;2023-07-13T04:25:47;2.23;;;1.60;;
4933;SDS011;2482;49.154;8.254;2023-07-13T04:28:16;4.00;;;1.83;;
4933;SDS011;2482;49.154;8.254;2023-07-13T04:30:44;2.80;;;1.90;;
4933;SDS011;2482;49.154;8.254;2023-07-13T04:33:11;4.13;;;1.83;;
4933;SDS011;2482;49.154;8.254;2023-07-13T04:35:38;2.50;;;2.03;;
4933;SDS011;2482;49.154;8.254;2023-07-13T04:38:05;2.17;;;1.80;;
4933;SDS011;2482;49.154;8.254;2023-07-13T04:40:33;5.07;;;2.30;;
4933;SDS011;2482;49.154;8.254;2023-07-13T04:43:00;3.17;;;2.00;;
4933;SDS011;2482;49.154;8.254;2023-07-13T04:45:27;3.57;;;1.77;;
4933;SDS011;2482;49.154;8.254;2023-07-13T04:47:54;2.83;;;2.23;;
4933;SDS011;2482;49.154;8.254;2023-07-13T04:50:21;4.50;;;2.00;;
4933;SDS011;2482;49.154;8.254;2023-07-13T04:52:52;4.10;;;1.97;;
4933;SDS011;2482;49.154;8.254;2023-07-13T04:55:19;4.80;;;1.90;;
4933;SDS011;2482;49.154;8.254;2023-07-13T04:57:47;2.93;;;1.90;;
4933;SDS011;2482;49.154;8.254;2023-07-13T05:00:14;2.40;;;2.20;;
4933;SDS011;2482;49.154;8.254;2023-07-13T05:02:45;3.93;;;2.40;;
4933;SDS011;2482;49.154;8.254;2023-07-13T05:05:12;4.40;;;2.50;;
4933;SDS011;2482;49.154;8.254;2023-07-13T05:07:39;8.50;;;2.47;;
4933;SDS011;2482;49.154;8.254;2023-07-13T05:10:07;5.63;;;2.30;;
4933;SDS011;2482;49.154;8.254;2023-07-13T05:12:34;3.33;;;1.93;;
4933;SDS011;2482;49.154;8.254;2023-07-13T05:15:02;1.90;;;1.60;;
4933;SDS011;2482;49.154;8.254;2023-07-13T05:17:30;9.57;;;2.53;;
4933;SDS011;2482;49.154;8.254;2023-07-13T05:19:57;4.30;;;1.80;;
4933;SDS011;2482;49.154;8.254;2023-07-13T05:22:24;3.73;;;2.03;;
4933;SDS011;2482;49.154;8.254;2023-07-13T05:24:51;5.77;;;1.83;;
4933;SDS011;2482;49.154;8.254;2023-07-13T05:27:18;6.00;;;2.10;;
4933;SDS011;2482;49.154;8.254;2023-07-13T05:29:45;4.40;;;2.00;;
4933;SDS011;2482;49.154;8.254;2023-07-13T05:32:12;2.30;;;1.90;;
4933;SDS011;2482;49.154;8.254;2023-07-13T05:34:39;3.13;;;1.70;;
4933;SDS011;2482;49.154;8.254;2023-07-13T05:37:07;4.07;;;1.60;;
4933;SDS011;2482;49.154;8.254;2023-07-13T05:39:34;2.70;;;1.40;;
4933;SDS011;2482;49.154;8.254;2023-07-13T05:42:02;4.07;;;1.40;;
4933;SDS011;2482;49.154;8.254;2023-07-13T05:44:29;2.30;;;1.83;;
4933;SDS011;2482;49.154;8.254;2023-07-13T05:46:56;5.83;;;1.40;;
4933;SDS011;2482;49.154;8.254;2023-07-13T05:49:24;2.80;;;1.33;;
4933;SDS011;2482;49.154;8.254;2023-07-13T05:51:51;4.13;;;1.83;;
4933;SDS011;2482;49.154;8.254;2023-07-13T05:54:18;3.40;;;1.60;;
4933;SDS011;2482;49.154;8.254;2023-07-13T05:56:45;7.83;;;1.80;;
4933;SDS011;2482;49.154;8.254;2023-07-13T05:59:12;6.23;;;2.33;;
4933;SDS011;2482;49.154;8.254;2023-07-13T06:01:39;6.80;;;1.87;;
4933;SDS011;2482;49.154;8.254;2023-07-13T06:04:08;9.37;;;2.23;;
4933;SDS011;2482;49.154;8.254;2023-07-13T06:06:35;2.70;;;1.80;;
4933;SDS011;2482;49.154;8.254;2023-07-13T06:09:02;5.43;;;2.07;;
4933;SDS011;2482;49.154;8.254;2023-07-13T06:11:29;5.93;;;1.80;;
4933;SDS011;2482;49.154;8.254;2023-07-13T06:13:56;2.00;;;1.63;;
4933;SDS011;2482;49.154;8.254;2023-07-13T06:16:23;4.20;;;1.70;;
4933;SDS011;2482;49.154;8.254;2023-07-13T06:18:50;5.80;;;1.90;;
4933;SDS011;2482;49.154;8.254;2023-07-13T06:21:18;2.60;;;1.40;;
4933;SDS011;2482;49.154;8.254;2023-07-13T06:23:48;3.17;;;1.77;;
4933;SDS011;2482;49.154;8.254;2023-07-13T06:26:17;6.13;;;1.70;;
4933;SDS011;2482;49.154;8.254;2023-07-13T06:28:45;2.30;;;1.43;;
4933;SDS011;2482;49.154;8.254;2023-07-13T06:31:13;2.30;;;1.50;;
4933;SDS011;2482;49.154;8.254;2023-07-13T06:33:41;7.30;;;1.60;;
4933;SDS011;2482;49.154;8.254;2023-07-13T06:36:10;3.43;;;1.30;;
4933;SDS011;2482;49.154;8.254;2023-07-13T06:38:37;3.00;;;1.40;;
4933;SDS011;2482;49.154;8.254;2023-07-13T06:41:06;4.10;;;1.73;;
4933;SDS011;2482;49.154;8.254;2023-07-13T06:43:34;3.20;;;1.37;;
4933;SDS011;2482;49.154;8.254;2023-07-13T06:46:02;5.40;;;1.87;;
4933;SDS011;2482;49.154;8.254;2023-07-13T06:48:29;2.03;;;1.43;;
4933;SDS011;2482;49.154;8.254;2023-07-13T06:50:56;5.47;;;1.27;;
4933;SDS011;2482;49.154;8.254;2023-07-13T06:53:23;2.13;;;1.60;;
4933;SDS011;2482;49.154;8.254;2023-07-13T06:55:50;2.30;;;1.40;;
4933;SDS011;2482;49.154;8.254;2023-07-13T06:58:18;5.43;;;1.47;;
4933;SDS011;2482;49.154;8.254;2023-07-13T07:00:45;4.10;;;1.30;;
4933;SDS011;2482;49.154;8.254;2023-07-13T07:03:13;2.33;;;1.20;;
4933;SDS011;2482;49.154;8.254;2023-07-13T07:05:40;1.37;;;1.10;;
4933;SDS011;2482;49.154;8.254;2023-07-13T07:08:07;3.17;;;1.63;;
4933;SDS011;2482;49.154;8.254;2023-07-13T07:10:35;3.53;;;1.33;;
4933;SDS011;2482;49.154;8.254;2023-07-13T07:13:02;5.33;;;1.03;;
4933;SDS011;2482;49.154;8.254;2023-07-13T07:15:30;2.20;;;1.33;;
4933;SDS011;2482;49.154;8.254;2023-07-13T07:17:57;2.07;;;1.30;;
4933;SDS011;2482;49.154;8.254;2023-07-13T07:20:24;3.53;;;1.60;;
4933;SDS011;2482;49.154;8.254;2023-07-13T07:22:52;3.50;;;1.77;;
4933;SDS011;2482;49.154;8.254;2023-07-13T07:25:19;3.37;;;1.30;;
4933;SDS011;2482;49.154;8.254;2023-07-13T07:27:46;3.57;;;1.50;;
4933;SDS011;2482;49.154;8.254;2023-07-13T07:30:16;6.53;;;1.30;;
4933;SDS011;2482;49.154;8.254;2023-07-13T07:32:46;3.90;;;1.80;;
4933;SDS011;2482;49.154;8.254;2023-07-13T07:35:16;4.30;;;1.40;;
4933;SDS011;2482;49.154;8.254;2023-07-13T07:37:43;5.10;;;1.70;;
4933;SDS011;2482;49.154;8.254;2023-07-13T07:40:13;5.80;;;2.40;;
4933;SDS011;2482;49.154;8.254;2023-07-13T07:42:43;3.10;;;1.07;;
4933;SDS011;2482;49.154;8.254;2023-07-13T07:45:10;3.03;;;1.47;;
4933;SDS011;2482;49.154;8.254;2023-07-13T07:47:40;3.33;;;1.10;;
4933;SDS011;2482;49.154;8.254;2023-07-13T07:50:07;5.43;;;1.40;;
4933;SDS011;2482;49.154;8.254;2023-07-13T07:52:35;5.77;;;1.60;;
4933;SDS011;2482;49.154;8.254;2023-07-13T07:55:03;3.13;;;1.00;;
4933;SDS011;2482;49.154;8.254;2023-07-13T07:57:35;2.30;;;1.30;;
4933;SDS011;2482;49.154;8.254;2023-07-13T08:00:05;2.93;;;1.20;;
4933;SDS011;2482;49.154;8.254;2023-07-13T08:02:36;3.93;;;1.30;;
4933;SDS011;2482;49.154;8.254;2023-07-13T08:05:06;2.83;;;1.23;;
4933;SDS011;2482;49.154;8.254;2023-07-13T08:07:37;2.40;;;1.10;;
4933;SDS011;2482;49.154;8.254;2023-07-13T08:10:06;3.13;;;1.30;;
4933;SDS011;2482;49.154;8.254;2023-07-13T08:12:34;4.07;;;1.13;;
4933;SDS011;2482;49.154;8.254;2023-07-13T08:15:06;3.20;;;0.93;;
4933;SDS011;2482;49.154;8.254;2023-07-13T08:17:38;5.70;;;1.27;;
4933;SDS011;2482;49.154;8.254;2023-07-13T08:20:05;3.80;;;1.17;;
4933;SDS011;2482;49.154;8.254;2023-07-13T08:22:33;3.43;;;1.37;;
4933;SDS011;2482;49.154;8.254;2023-07-13T08:25:00;5.37;;;1.53;;
4933;SDS011;2482;49.154;8.254;2023-07-13T08:27:28;2.50;;;1.10;;
4933;SDS011;2482;49.154;8.254;2023-07-13T08:29:55;3.73;;;1.23;;
4933;SDS011;2482;49.154;8.254;2023-07-13T08:32:22;2.10;;;1.27;;
4933;SDS011;2482;49.154;8.254;2023-07-13T08:34:50;2.93;;;1.20;;
4933;SDS011;2482;49.154;8.254;2023-07-13T08:37:17;3.30;;;1.33;;
4933;SDS011;2482;49.154;8.254;2023-07-13T08:39:46;4.63;;;1.73;;
4933;SDS011;2482;49.154;8.254;2023-07-13T08:50:43;5.70;;;1.23;;
4933;SDS011;2482;49.154;8.254;2023-07-13T08:53:40;3.00;;;1.20;;
4933;SDS011;2482;49.154;8.254;2023-07-13T08:56:17;2.37;;;1.20;;
4933;SDS011;2482;49.154;8.254;2023-07-13T08:59:00;2.10;;;1.13;;
4933;SDS011;2482;49.154;8.254;2023-07-13T09:04:49;3.60;;;1.10;;
4933;SDS011;2482;49.154;8.254;2023-07-13T09:10:21;4.30;;;1.57;;
4933;SDS011;2482;49.154;8.254;2023-07-13T09:15:45;3.83;;;1.13;;
4933;SDS011;2482;49.154;8.254;2023-07-13T09:18:21;3.97;;;1.40;;
4933;SDS011;2482;49.154;8.254;2023-07-13T09:21:08;4.00;;;1.17;;
4933;SDS011;2482;49.154;8.254;2023-07-13T09:23:43;3.53;;;0.97;;
4933;SDS011;2482;49.154;8.254;2023-07-13T09:26:16;3.93;;;1.47;;
4933;SDS011;2482;49.154;8.254;2023-07-13T09:28:51;3.07;;;1.30;;
4933;SDS011;2482;49.154;8.254;2023-07-13T09:31:36;1.93;;;1.20;;
4933;SDS011;2482;49.154;8.254;2023-07-13T09:34:10;4.60;;;1.73;;
4933;SDS011;2482;49.154;8.254;2023-07-13T09:36:39;4.07;;;1.27;;
4933;SDS011;2482;49.154;8.254;2023-07-13T09:41:50;4.43;;;1.30;;
4933;SDS011;2482;49.154;8.254;2023-07-13T09:44:48;2.97;;;1.30;;
4933;SDS011;2482;49.154;8.254;2023-07-13T09:52:48;2.50;;;1.30;;
4933;SDS011;2482;49.154;8.254;2023-07-13T09:55:24;2.30;;;1.27;;
4933;SDS011;2482;49.154;8.254;2023-07-13T10:00:38;2.23;;;1.00;;
4933;SDS011;2482;49.154;8.254;2023-07-13T10:03:15;3.73;;;1.13;;
4933;SDS011;2482;49.154;8.254;2023-07-13T10:05:47;5.90;;;1.30;;
4933;SDS011;2482;49.154;8.254;2023-07-13T10:10:57;2.80;;;1.10;;
4933;SDS011;2482;49.154;8.254;2023-07-13T10:13:46;4.57;;;1.33;;
4933;SDS011;2482;49.154;8.254;2023-07-13T10:16:27;3.10;;;1.10;;
4933;SDS011;2482;49.154;8.254;2023-07-13T10:19:10;3.53;;;1.10;;
4933;SDS011;2482;49.154;8.254;2023-07-13T10:24:47;4.00;;;1.30;;
4933;SDS011;2482;49.154;8.254;2023-07-13T10:27:21;3.47;;;1.43;;
4933;SDS011;2482;49.154;8.254;2023-07-13T10:30:02;2.50;;;1.10;;
4933;SDS011;2482;49.154;8.254;2023-07-13T10:32:42;4.10;;;1.53;;
4933;SDS011;2482;49.154;8.254;2023-07-13T10:35:11;5.37;;;1.20;;
4933;SDS011;2482;49.154;8.254;2023-07-13T10:37:46;6.93;;;1.60;;
4933;SDS011;2482;49.154;8.254;2023-07-13T10:40:29;3.10;;;1.30;;
4933;SDS011;2482;49.154;8.254;2023-07-13T10:43:02;2.63;;;1.53;;
4933;SDS011;2482;49.154;8.254;2023-07-13T10:45:39;3.60;;;1.30;;
4933;SDS011;2482;49.154;8.254;2023-07-13T10:48:08;4.13;;;1.17;;
4933;SDS011;2482;49.154;8.254;2023-07-13T10:50:47;3.40;;;1.07;;
4933;SDS011;2482;49.154;8.254;2023-07-13T10:53:38;2.80;;;1.50;;
4933;SDS011;2482;49.154;8.254;2023-07-13T10:56:29;4.60;;;1.30;;
4933;SDS011;2482;49.154;8.254;2023-07-13T10:59:05;2.10;;;1.00;;
4933;SDS011;2482;49.154;8.254;2023-07-13T11:01:58;8.63;;;1.60;;
4933;SDS011;2482;49.154;8.254;2023-07-13T11:07:16;5.03;;;1.10;;
4933;SDS011;2482;49.154;8.254;2023-07-13T11:09:53;2.23;;;1.10;;
4933;SDS011;2482;49.154;8.254;2023-07-13T11:22:45;6.17;;;1.30;;
4933;SDS011;2482;49.154;8.254;2023-07-13T11:28:22;1.73;;;1.20;;
4933;SDS011;2482;49.154;8.254;2023-07-13T11:33:28;3.00;;;1.53;;
4933;SDS011;2482;49.154;8.254;2023-07-13T11:36:15;6.10;;;1.43;;
4933;SDS011;2482;49.154;8.254;2023-07-13T11:38:55;2.27;;;1.20;;
4933;SDS011;2482;49.154;8.254;2023-07-13T11:41:42;4.50;;;1.33;;
4933;SDS011;2482;49.154;8.254;2023-07-13T11:44:16;3.87;;;0.90;;
4933;SDS011;2482;49.154;8.254;2023-07-13T11:46:48;3.10;;;0.90;;
4933;SDS011;2482;49.154;8.254;2023-07-13T11:49:31;2.10;;;0.90;;
4933;SDS011;2482;49.154;8.254;2023-07-13T11:52:12;1.57;;;1.20;;
4933;SDS011;2482;49.154;8.254;2023-07-13T11:54:52;2.30;;;1.10;;
4933;SDS011;2482;49.154;8.254;2023-07-13T11:59:53;4.97;;;1.60;;
4933;SDS011;2482;49.154;8.254;2023-07-13T12:02:29;3.30;;;1.23;;
4933;SDS011;2482;49.154;8.254;2023-07-13T12:05:03;2.33;;;1.10;;
4933;SDS011;2482;49.154;8.254;2023-07-13T12:07:32;2.23;;;1.10;;
4933;SDS011;2482;49.154;8.254;2023-07-13T12:10:03;2.40;;;1.33;;
4933;SDS011;2482;49.154;8.254;2023-07-13T12:12:55;3.10;;;1.10;;
4933;SDS011;2482;49.154;8.254;2023-07-13T12:15:39;2.40;;;1.23;;
4933;SDS011;2482;49.154;8.254;2023-07-13T12:18:18;7.10;;;1.40;;
4933;SDS011;2482;49.154;8.254;2023-07-13T12:20:55;2.77;;;1.10;;
4933;SDS011;2482;49.154;8.254;2023-07-13T12:23:28;3.53;;;1.13;;
4933;SDS011;2482;49.154;8.254;2023-07-13T12:26:02;3.20;;;1.00;;
4933;SDS011;2482;49.154;8.254;2023-07-13T12:31:23;3.10;;;0.90;;
4933;SDS011;2482;49.154;8.254;2023-07-13T12:34:08;1.50;;;0.97;;
4933;SDS011;2482;49.154;8.254;2023-07-13T12:45:01;7.50;;;1.60;;
4933;SDS011;2482;49.154;8.254;2023-07-13T12:47:31;2.27;;;1.00;;
4933;SDS011;2482;49.154;8.254;2023-07-13T12:50:14;1.87;;;1.17;;
4933;SDS011;2482;49.154;8.254;2023-07-13T12:52:56;2.97;;;1.00;;
4933;SDS011;2482;49.154;8.254;2023-07-13T12:55:30;4.07;;;1.00;;
4933;SDS011;2482;49.154;8.254;2023-07-13T12:57:59;3.90;;;1.00;;
4933;SDS011;2482;49.154;8.254;2023-07-13T13:08:47;1.53;;;1.00;;
4933;SDS011;2482;49.154;8.254;2023-07-13T13:11:17;8.83;;;1.10;;
4933;SDS011;2482;49.154;8.254;2023-07-13T13:13:46;3.07;;;1.53;;
4933;SDS011;2482;49.154;8.254;2023-07-13T13:16:29;3.90;;;1.00;;
4933;SDS011;2482;49.154;8.254;2023-07-13T13:18:59;3.10;;;1.10;;
4933;SDS011;2482;49.154;8.254;2023-07-13T13:21:38;2.07;;;1.27;;
4933;SDS011;2482;49.154;8.254;2023-07-13T13:24:12;8.93;;;1.57;;
4933;SDS011;2482;49.154;8.254;2023-07-13T13:26:43;2.97;;;1.37;;
4933;SDS011;2482;49.154;8.254;2023-07-13T13:29:18;2.07;;;1.20;;
4933;SDS011;2482;49.154;8.254;2023-07-13T13:31:50;2.03;;;1.03;;
4933;SDS011;2482;49.154;8.254;2023-07-13T13:34:19;3.60;;;1.10;;
4933;SDS011;2482;49.154;8.254;2023-07-13T13:36:50;1.67;;;0.90;;
4933;SDS011;2482;49.154;8.254;2023-07-13T13:39:25;3.63;;;1.20;;
4933;SDS011;2482;49.154;8.254;2023-07-13T13:42:03;3.53;;;1.23;;
4933;SDS011;2482;49.154;8.254;2023-07-13T13:44:31;10.60;;;1.50;;
4933;SDS011;2482;49.154;8.254;2023-07-13T13:46:58;1.50;;;0.90;;
4933;SDS011;2482;49.154;8.254;2023-07-13T13:49:26;3.70;;;2.03;;
4933;SDS011;2482;49.154;8.254;2023-07-13T13:51:54;3.90;;;1.37;;
4933;SDS011;2482;49.154;8.254;2023-07-13T13:54:22;2.60;;;1.40;;
4933;SDS011;2482;49.154;8.254;2023-07-13T13:56:51;3.00;;;1.10;;
4933;SDS011;2482;49.154;8.254;2023-07-13T13:59:19;5.77;;;1.50;;
4933;SDS011;2482;49.154;8.254;2023-07-13T14:01:46;3.80;;;1.40;;
4933;SDS011;2482;49.154;8.254;2023-07-13T14:04:19;6.47;;;1.37;;
4933;SDS011;2482;49.154;8.254;2023-07-13T14:06:48;2.87;;;1.13;;
4933;SDS011;2482;49.154;8.254;2023-07-13T14:09:16;2.37;;;1.10;;
4933;SDS011;2482;49.154;8.254;2023-07-13T14:11:46;5.73;;;1.30;;
4933;SDS011;2482;49.154;8.254;2023-07-13T14:14:18;3.07;;;1.20;;
4933;SDS011;2482;49.154;8.254;2023-07-13T14:16:49;7.67;;;1.20;;
4933;SDS011;2482;49.154;8.254;2023-07-13T14:19:22;4.90;;;1.70;;
4933;SDS011;2482;49.154;8.254;2023-07-13T14:21:49;3.50;;;1.33;;
4933;SDS011;2482;49.154;8.254;2023-07-13T14:24:19;4.90;;;1.40;;
4933;SDS011;2482;49.154;8.254;2023-07-13T14:26:47;1.93;;;0.97;;
4933;SDS011;2482;49.154;8.254;2023-07-13T14:29:15;2.43;;;0.90;;
4933;SDS011;2482;49.154;8.254;2023-07-13T14:31:49;3.47;;;1.27;;
4933;SDS011;2482;49.154;8.254;2023-07-13T14:34:16;4.70;;;1.27;;
4933;SDS011;2482;49.154;8.254;2023-07-13T14:36:47;1.80;;;1.17;;
4933;SDS011;2482;49.154;8.254;2023-07-13T14:39:18;2.23;;;1.00;;
4933;SDS011;2482;49.154;8.254;2023-07-13T14:41:49;2.03;;;0.90;;
4933;SDS011;2482;49.154;8.254;2023-07-13T14:44:26;2.73;;;1.33;;
4933;SDS011;2482;49.154;8.254;2023-07-13T14:46:56;2.83;;;1.27;;
4933;SDS011;2482;49.154;8.254;2023-07-13T14:49:34;1.70;;;1.10;;
4933;SDS011;2482;49.154;8.254;2023-07-13T14:52:26;4.80;;;1.37;;
4933;SDS011;2482;49.154;8.254;2023-07-13T14:54:53;1.97;;;0.90;;
4933;SDS011;2482;49.154;8.254;2023-07-13T14:57:21;2.83;;;0.90;;
4933;SDS011;2482;49.154;8.254;2023-07-13T14:59:48;2.33;;;1.10;;
4933;SDS011;2482;49.154;8.254;2023-07-13T15:02:18;3.80;;;1.00;;
4933;SDS011;2482;49.154;8.254;2023-07-13T15:04:57;5.40;;;1.30;;
4933;SDS011;2482;49.154;8.254;2023-07-13T15:07:24;2.17;;;1.00;;
4933;SDS011;2482;49.154;8.254;2023-07-13T15:09:52;3.87;;;1.20;;
4933;SDS011;2482;49.154;8.254;2023-07-13T15:12:19;2.23;;;1.00;;
4933;SDS011;2482;49.154;8.254;2023-07-13T15:14:48;3.40;;;1.50;;
4933;SDS011;2482;49.154;8.254;2023-07-13T15:17:57;4.57;;;1.10;;
4933;SDS011;2482;49.154;8.254;2023-07-13T15:20:28;4.70;;;1.03;;
4933;SDS011;2482;49.154;8.254;2023-07-13T15:23:00;1.30;;;0.90;;
4933;SDS011;2482;49.154;8.254;2023-07-13T15:25:28;2.70;;;1.17;;
4933;SDS011;2482;49.154;8.254;2023-07-13T15:27:57;2.27;;;1.00;;
4933;SDS011;2482;49.154;8.254;2023-07-13T15:30:31;2.57;;;1.20;;
4933;SDS011;2482;49.154;8.254;2023-07-13T15:33:19;1.77;;;1.00;;
4933;SDS011;2482;49.154;8.254;2023-07-13T15:35:52;3.40;;;1.17;;
4933;SDS011;2482;49.154;8.254;2023-07-13T15:38:21;1.77;;;1.37;;
4933;SDS011;2482;49.154;8.254;2023-07-13T15:40:55;2.50;;;0.97;;
4933;SDS011;2482;49.154;8.254;2023-07-13T15:43:23;2.33;;;1.10;;
4933;SDS011;2482;49.154;8.254;2023-07-13T15:45:52;1.97;;;0.93;;
4933;SDS011;2482;49.154;8.254;2023-07-13T15:48:22;7.07;;;1.30;;
4933;SDS011;2482;49.154;8.254;2023-07-13T15:50:51;1.43;;;0.90;;
4933;SDS011;2482;49.154;8.254;2023-07-13T15:53:23;2.63;;;1.37;;
4933;SDS011;2482;49.154;8.254;2023-07-13T15:55:54;3.33;;;1.07;;
4933;SDS011;2482;49.154;8.254;2023-07-13T15:58:21;3.17;;;1.13;;
4933;SDS011;2482;49.154;8.254;2023-07-13T16:00:49;2.57;;;1.30;;
4933;SDS011;2482;49.154;8.254;2023-07-13T16:03:20;2.60;;;1.50;;
4933;SDS011;2482;49.154;8.254;2023-07-13T16:05:48;4.10;;;1.30;;
4933;SDS011;2482;49.154;8.254;2023-07-13T16:08:23;3.80;;;1.17;;
4933;SDS011;2482;49.154;8.254;2023-07-13T16:10:54;3.13;;;1.10;;
4933;SDS011;2482;49.154;8.254;2023-07-13T16:13:22;3.57;;;1.63;;
4933;SDS011;2482;49.154;8.254;2023-07-13T16:15:52;2.40;;;1.10;;
4933;SDS011;2482;49.154;8.254;2023-07-13T16:18:23;3.90;;;1.27;;
4933;SDS011;2482;49.154;8.254;2023-07-13T16:20:50;5.40;;;1.13;;
4933;SDS011;2482;49.154;8.254;2023-07-13T16:23:18;1.60;;;1.47;;
4933;SDS011;2482;49.154;8.254;2023-07-13T16:25:45;5.47;;;1.30;;
4933;SDS011;2482;49.154;8.254;2023-07-13T16:28:15;2.70;;;1.00;;
4933;SDS011;2482;49.154;8.254;2023-07-13T16:30:42;3.03;;;1.27;;
4933;SDS011;2482;49.154;8.254;2023-07-13T16:33:09;4.40;;;1.53;;
4933;SDS011;2482;49.154;8.254;2023-07-13T16:35:38;1.47;;;1.23;;
4933;SDS011;2482;49.154;8.254;2023-07-13T16:38:17;1.93;;;1.10;;
4933;SDS011;2482;49.154;8.254;2023-07-13T16:40:47;2.40;;;1.10;;
4933;SDS011;2482;49.154;8.254;2023-07-13T16:43:15;5.40;;;1.17;;
4933;SDS011;2482;49.154;8.254;2023-07-13T16:45:48;1.83;;;1.17;;
4933;SDS011;2482;49.154;8.254;2023-07-13T16:48:18;4.03;;;1.20;;
4933;SDS011;2482;49.154;8.254;2023-07-13T16:50:55;2.40;;;1.10;;
4933;SDS011;2482;49.154;8.254;2023-07-13T16:53:25;5.43;;;1.37;;